sensor_id;sensor_type;location;lat;lon;timestamp;pressure;altitude;pressure_sealevel;temperature
81177;BMP280;74095;48.270;14.200;2024-03-06T00:02:11;97881.75;;;8.39
81177;BMP280;74095;48.270;14.200;2024-03-06T00:04:37;97876.50;;;8.34
81177;BMP280;74095;48.270;14.200;2024-03-06T00:07:04;97884.72;;;8.38
81177;BMP280;74095;48.270;14.200;2024-03-06T00:09:30;97877.34;;;8.30
81177;BMP280;74095;48.270;14.200;2024-03-06T00:11:57;97874.19;;;8.28
81177;BMP280;74095;48.270;14.200;2024-03-06T00:14:23;97875.00;;;8.23
81177;BMP280;74095;48.270;14.200;2024-03-06T00:16:50;97882.16;;;8.28
81177;BMP280;74095;48.270;14.200;2024-03-06T00:19:17;97890.59;;;8.35
81177;BMP280;74095;48.270;14.200;2024-03-06T00:21:43;97885.03;;;8.31
81177;BMP280;74095;48.270;14.200;2024-03-06T00:24:11;97886.75;;;8.17
81177;BMP280;74095;48.270;14.200;2024-03-06T00:26:45;97889.69;;;8.15
81177;BMP280;74095;48.270;14.200;2024-03-06T00:29:11;97878.34;;;8.05
81177;BMP280;74095;48.270;14.200;2024-03-06T00:31:42;97895.09;;;8.00
81177;BMP280;74095;48.270;14.200;2024-03-06T00:34:08;97875.53;;;7.86
81177;BMP280;74095;48.270;14.200;2024-03-06T00:36:34;97883.78;;;7.85
81177;BMP280;74095;48.270;14.200;2024-03-06T00:39:00;97883.56;;;7.81
81177;BMP280;74095;48.270;14.200;2024-03-06T00:41:26;97890.97;;;7.79
81177;BMP280;74095;48.270;14.200;2024-03-06T00:43:52;97892.34;;;7.77
81177;BMP280;74095;48.270;14.200;2024-03-06T00:46:17;97889.97;;;7.75
81177;BMP280;74095;48.270;14.200;2024-03-06T00:48:43;97889.22;;;7.64
81177;BMP280;74095;48.270;14.200;2024-03-06T00:51:09;97882.53;;;7.67
81177;BMP280;74095;48.270;14.200;2024-03-06T00:53:35;97873.00;;;7.71
81177;BMP280;74095;48.270;14.200;2024-03-06T00:56:02;97875.53;;;7.86
81177;BMP280;74095;48.270;14.200;2024-03-06T00:58:28;97880.81;;;7.96
81177;BMP280;74095;48.270;14.200;2024-03-06T01:00:54;97884.09;;;8.17
81177;BMP280;74095;48.270;14.200;2024-03-06T01:03:20;97877.06;;;8.31
81177;BMP280;74095;48.270;14.200;2024-03-06T01:05:46;97872.16;;;8.43
81177;BMP280;74095;48.270;14.200;2024-03-06T01:08:12;97871.91;;;8.45
81177;BMP280;74095;48.270;14.200;2024-03-06T01:10:38;97872.84;;;8.59
81177;BMP280;74095;48.270;14.200;2024-03-06T01:13:04;97876.47;;;8.68
81177;BMP280;74095;48.270;14.200;2024-03-06T01:15:30;97878.34;;;8.67
81177;BMP280;74095;48.270;14.200;2024-03-06T01:17:56;97866.81;;;8.72
81177;BMP280;74095;48.270;14.200;2024-03-06T01:20:23;97866.31;;;8.70
81177;BMP280;74095;48.270;14.200;2024-03-06T01:22:49;97881.88;;;8.82
81177;BMP280;74095;48.270;14.200;2024-03-06T01:25:15;97882.06;;;8.90
81177;BMP280;74095;48.270;14.200;2024-03-06T01:27:40;97874.09;;;8.90
81177;BMP280;74095;48.270;14.200;2024-03-06T01:30:07;97866.69;;;8.87
81177;BMP280;74095;48.270;14.200;2024-03-06T01:32:33;97867.69;;;8.91
81177;BMP280;74095;48.270;14.200;2024-03-06T01:34:59;97865.59;;;8.88
81177;BMP280;74095;48.270;14.200;2024-03-06T01:37:25;97865.84;;;8.92
81177;BMP280;74095;48.270;14.200;2024-03-06T01:39:50;97874.56;;;8.97
81177;BMP280;74095;48.270;14.200;2024-03-06T01:42:17;97876.13;;;8.98
81177;BMP280;74095;48.270;14.200;2024-03-06T01:44:44;97872.91;;;9.01
81177;BMP280;74095;48.270;14.200;2024-03-06T01:47:09;97859.59;;;9.01
81177;BMP280;74095;48.270;14.200;2024-03-06T01:49:35;97878.97;;;9.07
81177;BMP280;74095;48.270;14.200;2024-03-06T01:52:02;97883.50;;;9.06
81177;BMP280;74095;48.270;14.200;2024-03-06T01:54:29;97870.31;;;8.96
81177;BMP280;74095;48.270;14.200;2024-03-06T01:56:57;97870.81;;;8.98
81177;BMP280;74095;48.270;14.200;2024-03-06T01:59:26;97867.06;;;8.99
81177;BMP280;74095;48.270;14.200;2024-03-06T02:01:53;97875.22;;;9.08
81177;BMP280;74095;48.270;14.200;2024-03-06T02:04:20;97880.84;;;9.06
81177;BMP280;74095;48.270;14.200;2024-03-06T02:06:46;97865.50;;;8.98
81177;BMP280;74095;48.270;14.200;2024-03-06T02:09:12;97866.59;;;8.92
81177;BMP280;74095;48.270;14.200;2024-03-06T02:11:40;97867.16;;;8.89
81177;BMP280;74095;48.270;14.200;2024-03-06T02:14:07;97853.41;;;8.82
81177;BMP280;74095;48.270;14.200;2024-03-06T02:16:36;97865.59;;;8.88
81177;BMP280;74095;48.270;14.200;2024-03-06T02:19:02;97869.34;;;8.87
81177;BMP280;74095;48.270;14.200;2024-03-06T02:21:29;97862.25;;;8.78
81177;BMP280;74095;48.270;14.200;2024-03-06T02:23:54;97859.09;;;8.76
81177;BMP280;74095;48.270;14.200;2024-03-06T02:26:21;97862.31;;;8.73
81177;BMP280;74095;48.270;14.200;2024-03-06T02:28:52;97842.53;;;8.55
81177;BMP280;74095;48.270;14.200;2024-03-06T02:31:18;97870.81;;;8.46
81177;BMP280;74095;48.270;14.200;2024-03-06T02:33:48;97868.41;;;8.15
81177;BMP280;74095;48.270;14.200;2024-03-06T02:36:15;97867.53;;;7.91
81177;BMP280;74095;48.270;14.200;2024-03-06T02:38:43;97872.38;;;7.84
81177;BMP280;74095;48.270;14.200;2024-03-06T02:41:09;97874.81;;;7.76
81177;BMP280;74095;48.270;14.200;2024-03-06T02:43:36;97879.44;;;7.60
81177;BMP280;74095;48.270;14.200;2024-03-06T02:46:03;97878.09;;;7.57
81177;BMP280;74095;48.270;14.200;2024-03-06T02:48:29;97879.75;;;7.43
81177;BMP280;74095;48.270;14.200;2024-03-06T02:50:56;97884.03;;;7.34
81177;BMP280;74095;48.270;14.200;2024-03-06T02:53:22;97869.22;;;7.28
81177;BMP280;74095;48.270;14.200;2024-03-06T02:55:48;97886.75;;;7.24
81177;BMP280;74095;48.270;14.200;2024-03-06T02:58:14;97874.38;;;6.99
81177;BMP280;74095;48.270;14.200;2024-03-06T03:00:42;97850.50;;;6.89
81177;BMP280;74095;48.270;14.200;2024-03-06T03:03:09;97875.94;;;6.95
81177;BMP280;74095;48.270;14.200;2024-03-06T03:05:38;97881.22;;;7.10
81177;BMP280;74095;48.270;14.200;2024-03-06T03:08:05;97884.63;;;7.21
81177;BMP280;74095;48.270;14.200;2024-03-06T03:10:31;97870.56;;;7.26
81177;BMP280;74095;48.270;14.200;2024-03-06T03:13:00;97849.38;;;7.10
81177;BMP280;74095;48.270;14.200;2024-03-06T03:15:26;97879.03;;;7.28
81177;BMP280;74095;48.270;14.200;2024-03-06T03:17:52;97869.03;;;7.09
81177;BMP280;74095;48.270;14.200;2024-03-06T03:20:18;97878.56;;;7.15
81177;BMP280;74095;48.270;14.200;2024-03-06T03:22:44;97871.66;;;7.09
81177;BMP280;74095;48.270;14.200;2024-03-06T03:25:42;97880.72;;;7.03
81177;BMP280;74095;48.270;14.200;2024-03-06T03:28:08;97872.78;;;6.83
81177;BMP280;74095;48.270;14.200;2024-03-06T03:30:35;97880.19;;;6.96
81177;BMP280;74095;48.270;14.200;2024-03-06T03:33:01;97874.66;;;6.88
81177;BMP280;74095;48.270;14.200;2024-03-06T03:35:28;97873.84;;;6.87
81177;BMP280;74095;48.270;14.200;2024-03-06T03:37:54;97881.28;;;6.85
81177;BMP280;74095;48.270;14.200;2024-03-06T03:40:21;97876.50;;;6.82
81177;BMP280;74095;48.270;14.200;2024-03-06T03:42:47;97885.56;;;6.81
81177;BMP280;74095;48.270;14.200;2024-03-06T03:45:13;97877.56;;;6.86
81177;BMP280;74095;48.270;14.200;2024-03-06T03:47:40;97887.91;;;6.93
81177;BMP280;74095;48.270;14.200;2024-03-06T03:50:09;97873.34;;;6.80
81177;BMP280;74095;48.270;14.200;2024-03-06T03:52:35;97873.91;;;6.72
81177;BMP280;74095;48.270;14.200;2024-03-06T03:55:01;97877.59;;;6.76
81177;BMP280;74095;48.270;14.200;2024-03-06T03:57:27;97874.41;;;6.74
81177;BMP280;74095;48.270;14.200;2024-03-06T03:59:53;97873.59;;;6.79
81177;BMP280;74095;48.270;14.200;2024-03-06T04:02:19;97886.06;;;6.78
81177;BMP280;74095;48.270;14.200;2024-03-06T04:04:45;97879.72;;;6.74
81177;BMP280;74095;48.270;14.200;2024-03-06T04:07:11;97881.56;;;6.79
81177;BMP280;74095;48.270;14.200;2024-03-06T04:09:37;97877.59;;;6.81
81177;BMP280;74095;48.270;14.200;2024-03-06T04:12:04;97868.84;;;6.81
81177;BMP280;74095;48.270;14.200;2024-03-06T04:14:30;97863.78;;;6.79
81177;BMP280;74095;48.270;14.200;2024-03-06T04:16:56;97877.00;;;6.94
81177;BMP280;74095;48.270;14.200;2024-03-06T04:19:22;97853.16;;;6.84
81177;BMP280;74095;48.270;14.200;2024-03-06T04:21:48;97878.59;;;6.95
81177;BMP280;74095;48.270;14.200;2024-03-06T04:24:14;97879.94;;;6.98
81177;BMP280;74095;48.270;14.200;2024-03-06T04:26:40;97874.84;;;7.06
81177;BMP280;74095;48.270;14.200;2024-03-06T04:29:06;97884.13;;;7.14
81177;BMP280;74095;48.270;14.200;2024-03-06T04:31:32;97887.00;;;7.22
81177;BMP280;74095;48.270;14.200;2024-03-06T04:33:58;97869.03;;;7.09
81177;BMP280;74095;48.270;14.200;2024-03-06T04:36:24;97890.16;;;7.30
81177;BMP280;74095;48.270;14.200;2024-03-06T04:38:50;97883.28;;;7.23
81177;BMP280;74095;48.270;14.200;2024-03-06T04:41:18;97866.66;;;7.03
81177;BMP280;74095;48.270;14.200;2024-03-06T04:43:45;97882.78;;;7.16
81177;BMP280;74095;48.270;14.200;2024-03-06T04:46:14;97898.16;;;7.19
81177;BMP280;74095;48.270;14.200;2024-03-06T04:48:40;97887.53;;;7.19
81177;BMP280;74095;48.270;14.200;2024-03-06T04:51:06;97892.34;;;7.12
81177;BMP280;74095;48.270;14.200;2024-03-06T04:53:32;97898.72;;;7.16
81177;BMP280;74095;48.270;14.200;2024-03-06T04:55:58;97895.31;;;7.06
81177;BMP280;74095;48.270;14.200;2024-03-06T04:58:24;97901.41;;;7.01
81177;BMP280;74095;48.270;14.200;2024-03-06T05:00:49;97911.25;;;6.91
81177;BMP280;74095;48.270;14.200;2024-03-06T05:03:15;97897.25;;;6.65
81177;BMP280;74095;48.270;14.200;2024-03-06T05:05:41;97904.59;;;6.83
81177;BMP280;74095;48.270;14.200;2024-03-06T05:08:07;97907.78;;;6.95
81177;BMP280;74095;48.270;14.200;2024-03-06T05:10:33;97903.25;;;6.96
81177;BMP280;74095;48.270;14.200;2024-03-06T05:13:00;97915.72;;;7.05
81177;BMP280;74095;48.270;14.200;2024-03-06T05:15:26;97925.00;;;7.13
81177;BMP280;74095;48.270;14.200;2024-03-06T05:17:53;97909.31;;;7.16
81177;BMP280;74095;48.270;14.200;2024-03-06T05:20:19;97915.75;;;6.90
81177;BMP280;74095;48.270;14.200;2024-03-06T05:22:45;97930.09;;;6.79
81177;BMP280;74095;48.270;14.200;2024-03-06T05:25:11;97913.16;;;6.65
81177;BMP280;74095;48.270;14.200;2024-03-06T05:27:37;97915.78;;;6.70
81177;BMP280;74095;48.270;14.200;2024-03-06T05:30:03;97930.63;;;6.71
81177;BMP280;74095;48.270;14.200;2024-03-06T05:32:31;97924.28;;;6.72
81177;BMP280;74095;48.270;14.200;2024-03-06T05:34:56;97932.75;;;6.74
81177;BMP280;74095;48.270;14.200;2024-03-06T05:37:23;97938.06;;;6.74
81177;BMP280;74095;48.270;14.200;2024-03-06T05:39:49;97943.91;;;6.81
81177;BMP280;74095;48.270;14.200;2024-03-06T05:42:15;97931.16;;;6.78
81177;BMP280;74095;48.270;14.200;2024-03-06T05:44:41;97945.47;;;6.82
81177;BMP280;74095;48.270;14.200;2024-03-06T05:47:07;97943.09;;;6.76
81177;BMP280;74095;48.270;14.200;2024-03-06T05:49:33;97937.00;;;6.75
81177;BMP280;74095;48.270;14.200;2024-03-06T05:52:00;97948.94;;;6.88
81177;BMP280;74095;48.270;14.200;2024-03-06T05:54:26;97948.41;;;6.81
81177;BMP280;74095;48.270;14.200;2024-03-06T05:56:53;97952.09;;;6.85
81177;BMP280;74095;48.270;14.200;2024-03-06T05:59:19;97963.50;;;6.90
81177;BMP280;74095;48.270;14.200;2024-03-06T06:01:45;97944.91;;;6.95
81177;BMP280;74095;48.270;14.200;2024-03-06T06:04:12;97953.66;;;6.96
81177;BMP280;74095;48.270;14.200;2024-03-06T06:06:39;97961.88;;;7.09
81177;BMP280;74095;48.270;14.200;2024-03-06T06:09:06;97962.97;;;7.03
81177;BMP280;74095;48.270;14.200;2024-03-06T06:11:32;97966.41;;;7.14
81177;BMP280;74095;48.270;14.200;2024-03-06T06:14:01;97955.78;;;7.09
81177;BMP280;74095;48.270;14.200;2024-03-06T06:16:34;97963.50;;;7.15
81177;BMP280;74095;48.270;14.200;2024-03-06T06:19:00;97973.53;;;7.29
81177;BMP280;74095;48.270;14.200;2024-03-06T06:21:26;97984.66;;;7.36
81177;BMP280;74095;48.270;14.200;2024-03-06T06:23:52;97975.63;;;7.32
81177;BMP280;74095;48.270;14.200;2024-03-06T06:26:18;97989.38;;;7.44
81177;BMP280;74095;48.270;14.200;2024-03-06T06:28:45;97992.84;;;7.49
81177;BMP280;74095;48.270;14.200;2024-03-06T06:31:12;97985.41;;;7.51
81177;BMP280;74095;48.270;14.200;2024-03-06T06:33:38;97985.91;;;7.53
81177;BMP280;74095;48.270;14.200;2024-03-06T06:36:04;97991.97;;;7.69
81177;BMP280;74095;48.270;14.200;2024-03-06T06:38:30;97994.63;;;7.74
81177;BMP280;74095;48.270;14.200;2024-03-06T06:40:56;97997.22;;;7.84
81177;BMP280;74095;48.270;14.200;2024-03-06T06:43:22;98008.91;;;7.83
81177;BMP280;74095;48.270;14.200;2024-03-06T06:45:48;98006.25;;;7.83
81177;BMP280;74095;48.270;14.200;2024-03-06T06:48:14;97999.03;;;7.89
81177;BMP280;74095;48.270;14.200;2024-03-06T06:51:11;98007.75;;;7.99
81177;BMP280;74095;48.270;14.200;2024-03-06T06:53:39;97997.66;;;8.06
81177;BMP280;74095;48.270;14.200;2024-03-06T06:56:05;97993.16;;;8.07
81177;BMP280;74095;48.270;14.200;2024-03-06T06:58:32;98008.47;;;8.20
81177;BMP280;74095;48.270;14.200;2024-03-06T07:00:57;98010.31;;;8.25
81177;BMP280;74095;48.270;14.200;2024-03-06T07:03:24;98012.13;;;8.29
81177;BMP280;74095;48.270;14.200;2024-03-06T07:05:57;98004.94;;;8.35
81177;BMP280;74095;48.270;14.200;2024-03-06T07:08:23;98021.91;;;8.39
81177;BMP280;74095;48.270;14.200;2024-03-06T07:10:50;98020.56;;;8.41
81177;BMP280;74095;48.270;14.200;2024-03-06T07:13:16;98018.97;;;8.40
81177;BMP280;74095;48.270;14.200;2024-03-06T07:15:43;98012.31;;;8.43
81177;BMP280;74095;48.270;14.200;2024-03-06T07:18:09;98022.34;;;8.51
81177;BMP280;74095;48.270;14.200;2024-03-06T07:20:35;98018.63;;;8.52
81177;BMP280;74095;48.270;14.200;2024-03-06T07:23:01;98018.16;;;8.45
81177;BMP280;74095;48.270;14.200;2024-03-06T07:25:27;98035.66;;;8.51
81177;BMP280;74095;48.270;14.200;2024-03-06T07:27:53;98022.91;;;8.53
81177;BMP280;74095;48.270;14.200;2024-03-06T07:30:19;98035.56;;;8.66
81177;BMP280;74095;48.270;14.200;2024-03-06T07:32:45;98034.50;;;8.67
81177;BMP280;74095;48.270;14.200;2024-03-06T07:35:11;98018.75;;;8.70
81177;BMP280;74095;48.270;14.200;2024-03-06T07:37:37;98035.94;;;8.88
81177;BMP280;74095;48.270;14.200;2024-03-06T07:40:04;98029.03;;;8.82
81177;BMP280;74095;48.270;14.200;2024-03-06T07:42:30;98027.09;;;8.93
81177;BMP280;74095;48.270;14.200;2024-03-06T07:44:57;98028.44;;;8.90
81177;BMP280;74095;48.270;14.200;2024-03-06T07:47:23;98034.81;;;8.94
81177;BMP280;74095;48.270;14.200;2024-03-06T07:49:49;98036.44;;;8.90
81177;BMP280;74095;48.270;14.200;2024-03-06T07:52:16;98047.00;;;9.00
81177;BMP280;74095;48.270;14.200;2024-03-06T07:54:42;98043.50;;;9.05
81177;BMP280;74095;48.270;14.200;2024-03-06T07:57:07;98048.47;;;9.16
81177;BMP280;74095;48.270;14.200;2024-03-06T07:59:35;98042.44;;;9.06
81177;BMP280;74095;48.270;14.200;2024-03-06T08:02:01;98056.25;;;8.74
81177;BMP280;74095;48.270;14.200;2024-03-06T08:04:27;98047.41;;;8.84
81177;BMP280;74095;48.270;14.200;2024-03-06T08:06:53;98042.81;;;8.89
81177;BMP280;74095;48.270;14.200;2024-03-06T08:09:18;98062.47;;;8.93
81177;BMP280;74095;48.270;14.200;2024-03-06T08:11:45;98064.41;;;8.88
81177;BMP280;74095;48.270;14.200;2024-03-06T08:14:11;98064.44;;;8.83
81177;BMP280;74095;48.270;14.200;2024-03-06T08:16:37;98077.06;;;9.01
81177;BMP280;74095;48.270;14.200;2024-03-06T08:19:03;98071.25;;;8.94
81177;BMP280;74095;48.270;14.200;2024-03-06T08:21:29;98062.25;;;8.90
81177;BMP280;74095;48.270;14.200;2024-03-06T08:23:55;98081.19;;;8.83
81177;BMP280;74095;48.270;14.200;2024-03-06T08:26:22;98081.25;;;8.78
81177;BMP280;74095;48.270;14.200;2024-03-06T08:28:48;98090.78;;;8.79
81177;BMP280;74095;48.270;14.200;2024-03-06T08:31:14;98073.22;;;8.39
81177;BMP280;74095;48.270;14.200;2024-03-06T08:33:40;98085.13;;;8.52
81177;BMP280;74095;48.270;14.200;2024-03-06T08:36:06;98087.97;;;8.60
81177;BMP280;74095;48.270;14.200;2024-03-06T08:38:32;98088.31;;;8.59
81177;BMP280;74095;48.270;14.200;2024-03-06T08:40:58;98074.13;;;8.68
81177;BMP280;74095;48.270;14.200;2024-03-06T08:43:24;98090.97;;;8.93
81177;BMP280;74095;48.270;14.200;2024-03-06T08:45:50;98094.50;;;8.83
81177;BMP280;74095;48.270;14.200;2024-03-06T08:48:16;98097.72;;;8.80
81177;BMP280;74095;48.270;14.200;2024-03-06T08:50:42;98104.47;;;8.67
81177;BMP280;74095;48.270;14.200;2024-03-06T08:53:08;98090.16;;;8.58
81177;BMP280;74095;48.270;14.200;2024-03-06T08:55:35;98103.13;;;8.65
81177;BMP280;74095;48.270;14.200;2024-03-06T08:58:01;98110.28;;;8.69
81177;BMP280;74095;48.270;14.200;2024-03-06T09:00:27;98108.47;;;8.60
81177;BMP280;74095;48.270;14.200;2024-03-06T09:02:52;98104.00;;;8.94
81177;BMP280;74095;48.270;14.200;2024-03-06T09:05:19;98108.56;;;8.89
81177;BMP280;74095;48.270;14.200;2024-03-06T09:07:46;98111.66;;;8.62
81177;BMP280;74095;48.270;14.200;2024-03-06T09:10:12;98117.41;;;8.79
81177;BMP280;74095;48.270;14.200;2024-03-06T09:12:39;98125.91;;;8.81
81177;BMP280;74095;48.270;14.200;2024-03-06T09:15:06;98125.97;;;8.71
81177;BMP280;74095;48.270;14.200;2024-03-06T09:17:33;98128.84;;;8.80
81177;BMP280;74095;48.270;14.200;2024-03-06T09:19:59;98128.94;;;9.03
81177;BMP280;74095;48.270;14.200;2024-03-06T09:22:25;98117.66;;;8.83
81177;BMP280;74095;48.270;14.200;2024-03-06T09:24:51;98127.97;;;8.94
81177;BMP280;74095;48.270;14.200;2024-03-06T09:27:16;98109.34;;;8.89
81177;BMP280;74095;48.270;14.200;2024-03-06T09:29:43;98116.25;;;8.95
81177;BMP280;74095;48.270;14.200;2024-03-06T09:32:09;98127.38;;;9.02
81177;BMP280;74095;48.270;14.200;2024-03-06T09:34:34;98102.56;;;8.73
81177;BMP280;74095;48.270;14.200;2024-03-06T09:37:00;98119.16;;;8.55
81177;BMP280;74095;48.270;14.200;2024-03-06T09:39:26;98126.44;;;8.83
81177;BMP280;74095;48.270;14.200;2024-03-06T09:41:55;98122.44;;;8.86
81177;BMP280;74095;48.270;14.200;2024-03-06T09:44:22;98133.94;;;9.10
81177;BMP280;74095;48.270;14.200;2024-03-06T09:46:49;98142.88;;;9.29
81177;BMP280;74095;48.270;14.200;2024-03-06T09:49:17;98133.16;;;9.09
81177;BMP280;74095;48.270;14.200;2024-03-06T09:51:47;98136.75;;;9.29
81177;BMP280;74095;48.270;14.200;2024-03-06T09:54:16;98132.53;;;9.23
81177;BMP280;74095;48.270;14.200;2024-03-06T09:56:43;98130.53;;;9.04
81177;BMP280;74095;48.270;14.200;2024-03-06T09:59:09;98130.00;;;9.07
81177;BMP280;74095;48.270;14.200;2024-03-06T10:01:45;98126.09;;;9.29
81177;BMP280;74095;48.270;14.200;2024-03-06T10:04:24;98131.88;;;9.36
81177;BMP280;74095;48.270;14.200;2024-03-06T10:06:57;98130.44;;;9.48
81177;BMP280;74095;48.270;14.200;2024-03-06T10:09:24;98115.06;;;9.11
81177;BMP280;74095;48.270;14.200;2024-03-06T10:11:51;98137.31;;;9.26
81177;BMP280;74095;48.270;14.200;2024-03-06T10:14:19;98140.47;;;9.28
81177;BMP280;74095;48.270;14.200;2024-03-06T10:16:56;98129.88;;;9.23
81177;BMP280;74095;48.270;14.200;2024-03-06T10:19:23;98139.16;;;9.54
81177;BMP280;74095;48.270;14.200;2024-03-06T10:21:50;98144.03;;;9.47
81177;BMP280;74095;48.270;14.200;2024-03-06T10:24:23;98140.34;;;9.71
81177;BMP280;74095;48.270;14.200;2024-03-06T10:26:56;98135.75;;;9.77
81177;BMP280;74095;48.270;14.200;2024-03-06T10:29:25;98124.06;;;9.73
81177;BMP280;74095;48.270;14.200;2024-03-06T10:31:55;98141.97;;;9.96
81177;BMP280;74095;48.270;14.200;2024-03-06T10:34:27;98135.69;;;9.82
81177;BMP280;74095;48.270;14.200;2024-03-06T10:36:55;98142.88;;;9.82
81177;BMP280;74095;48.270;14.200;2024-03-06T10:39:21;98121.19;;;9.93
81177;BMP280;74095;48.270;14.200;2024-03-06T10:41:55;98152.16;;;10.13
81177;BMP280;74095;48.270;14.200;2024-03-06T10:44:23;98132.59;;;10.22
81177;BMP280;74095;48.270;14.200;2024-03-06T10:47:07;98152.69;;;10.34
81177;BMP280;74095;48.270;14.200;2024-03-06T10:49:35;98138.25;;;9.92
81177;BMP280;74095;48.270;14.200;2024-03-06T10:52:04;98147.59;;;10.13
81177;BMP280;74095;48.270;14.200;2024-03-06T10:54:34;98144.97;;;10.32
81177;BMP280;74095;48.270;14.200;2024-03-06T10:57:08;98123.94;;;10.31
81177;BMP280;74095;48.270;14.200;2024-03-06T10:59:35;98142.44;;;10.41
81177;BMP280;74095;48.270;14.200;2024-03-06T11:02:01;98147.66;;;10.51
81177;BMP280;74095;48.270;14.200;2024-03-06T11:04:29;98151.72;;;10.67
81177;BMP280;74095;48.270;14.200;2024-03-06T11:06:56;98134.09;;;10.29
81177;BMP280;74095;48.270;14.200;2024-03-06T11:09:22;98148.09;;;10.58
81177;BMP280;74095;48.270;14.200;2024-03-06T11:11:50;98142.88;;;10.48
81177;BMP280;74095;48.270;14.200;2024-03-06T11:14:17;98134.81;;;10.53
81177;BMP280;74095;48.270;14.200;2024-03-06T11:17:02;98154.31;;;10.72
81177;BMP280;74095;48.270;14.200;2024-03-06T11:19:32;98145.06;;;10.83
81177;BMP280;74095;48.270;14.200;2024-03-06T11:22:18;98148.16;;;10.90
81177;BMP280;74095;48.270;14.200;2024-03-06T11:24:44;98138.34;;;10.86
81177;BMP280;74095;48.270;14.200;2024-03-06T11:27:10;98118.75;;;10.76
81177;BMP280;74095;48.270;14.200;2024-03-06T11:30:11;98131.75;;;10.97
81177;BMP280;74095;48.270;14.200;2024-03-06T11:32:58;98125.41;;;10.79
81177;BMP280;74095;48.270;14.200;2024-03-06T11:35:24;98113.44;;;10.90
81177;BMP280;74095;48.270;14.200;2024-03-06T11:37:50;98122.50;;;11.26
81177;BMP280;74095;48.270;14.200;2024-03-06T11:40:24;98118.13;;;11.30
81177;BMP280;74095;48.270;14.200;2024-03-06T11:42:51;98117.81;;;11.18
81177;BMP280;74095;48.270;14.200;2024-03-06T11:45:18;98119.09;;;11.35
81177;BMP280;74095;48.270;14.200;2024-03-06T11:47:59;98118.38;;;11.48
81177;BMP280;74095;48.270;14.200;2024-03-06T11:50:26;98104.47;;;11.46
81177;BMP280;74095;48.270;14.200;2024-03-06T11:52:51;98122.50;;;11.67
81177;BMP280;74095;48.270;14.200;2024-03-06T11:55:17;98123.91;;;11.65
81177;BMP280;74095;48.270;14.200;2024-03-06T11:57:46;98111.19;;;11.29
81177;BMP280;74095;48.270;14.200;2024-03-06T12:00:13;98125.25;;;11.35
81177;BMP280;74095;48.270;14.200;2024-03-06T12:02:39;98118.75;;;11.41
81177;BMP280;74095;48.270;14.200;2024-03-06T12:05:05;98118.78;;;10.90
81177;BMP280;74095;48.270;14.200;2024-03-06T12:07:31;98102.09;;;10.98
81177;BMP280;74095;48.270;14.200;2024-03-06T12:09:57;98112.03;;;11.11
81177;BMP280;74095;48.270;14.200;2024-03-06T12:12:24;98106.47;;;11.40
81177;BMP280;74095;48.270;14.200;2024-03-06T12:14:59;98112.13;;;11.39
81177;BMP280;74095;48.270;14.200;2024-03-06T12:17:26;98110.47;;;11.10
81177;BMP280;74095;48.270;14.200;2024-03-06T12:19:55;98098.72;;;10.74
81177;BMP280;74095;48.270;14.200;2024-03-06T12:22:25;98118.00;;;10.90
81177;BMP280;74095;48.270;14.200;2024-03-06T12:24:58;98115.06;;;10.54
81177;BMP280;74095;48.270;14.200;2024-03-06T12:27:24;98114.94;;;10.64
81177;BMP280;74095;48.270;14.200;2024-03-06T12:29:52;98121.69;;;10.75
81177;BMP280;74095;48.270;14.200;2024-03-06T12:32:19;98105.50;;;10.85
81177;BMP280;74095;48.270;14.200;2024-03-06T12:34:58;98100.84;;;10.77
81177;BMP280;74095;48.270;14.200;2024-03-06T12:37:29;98114.28;;;11.04
81177;BMP280;74095;48.270;14.200;2024-03-06T12:39:58;98109.19;;;11.21
81177;BMP280;74095;48.270;14.200;2024-03-06T12:42:24;98115.50;;;11.12
81177;BMP280;74095;48.270;14.200;2024-03-06T12:44:50;98112.72;;;11.03
81177;BMP280;74095;48.270;14.200;2024-03-06T12:47:16;98112.69;;;11.36
81177;BMP280;74095;48.270;14.200;2024-03-06T12:49:42;98109.72;;;11.51
81177;BMP280;74095;48.270;14.200;2024-03-06T12:52:08;98073.22;;;11.60
81177;BMP280;74095;48.270;14.200;2024-03-06T12:54:34;98081.91;;;11.52
81177;BMP280;74095;48.270;14.200;2024-03-06T12:57:00;98107.66;;;11.48
81177;BMP280;74095;48.270;14.200;2024-03-06T12:59:26;98112.34;;;11.83
81177;BMP280;74095;48.270;14.200;2024-03-06T13:01:52;98115.34;;;11.36
81177;BMP280;74095;48.270;14.200;2024-03-06T13:04:19;98110.06;;;11.63
81177;BMP280;74095;48.270;14.200;2024-03-06T13:06:45;98097.38;;;11.55
81177;BMP280;74095;48.270;14.200;2024-03-06T13:09:12;98092.94;;;11.77
81177;BMP280;74095;48.270;14.200;2024-03-06T13:11:38;98096.28;;;11.97
81177;BMP280;74095;48.270;14.200;2024-03-06T13:14:04;98103.69;;;12.13
81177;BMP280;74095;48.270;14.200;2024-03-06T13:16:29;98103.69;;;11.86
81177;BMP280;74095;48.270;14.200;2024-03-06T13:18:55;98105.19;;;11.65
81177;BMP280;74095;48.270;14.200;2024-03-06T13:21:23;98106.19;;;11.69
81177;BMP280;74095;48.270;14.200;2024-03-06T13:23:49;98093.13;;;11.54
81177;BMP280;74095;48.270;14.200;2024-03-06T13:26:15;98110.34;;;11.75
81177;BMP280;74095;48.270;14.200;2024-03-06T13:28:41;98100.06;;;11.82
81177;BMP280;74095;48.270;14.200;2024-03-06T13:31:07;98111.91;;;11.90
81177;BMP280;74095;48.270;14.200;2024-03-06T13:33:33;98097.16;;;11.38
81177;BMP280;74095;48.270;14.200;2024-03-06T13:35:59;98094.59;;;11.60
81177;BMP280;74095;48.270;14.200;2024-03-06T13:38:25;98097.88;;;11.84
81177;BMP280;74095;48.270;14.200;2024-03-06T13:40:51;98105.31;;;11.60
81177;BMP280;74095;48.270;14.200;2024-03-06T13:43:17;98097.56;;;11.72
81177;BMP280;74095;48.270;14.200;2024-03-06T13:45:49;98107.88;;;11.92
81177;BMP280;74095;48.270;14.200;2024-03-06T13:48:16;98115.09;;;12.05
81177;BMP280;74095;48.270;14.200;2024-03-06T13:50:45;98110.94;;;11.72
81177;BMP280;74095;48.270;14.200;2024-03-06T13:53:12;98102.13;;;11.85
81177;BMP280;74095;48.270;14.200;2024-03-06T13:55:38;98115.19;;;11.73
81177;BMP280;74095;48.270;14.200;2024-03-06T13:58:04;98099.38;;;11.63
81177;BMP280;74095;48.270;14.200;2024-03-06T14:00:29;98105.13;;;11.83
81177;BMP280;74095;48.270;14.200;2024-03-06T14:02:57;98114.09;;;12.01
81177;BMP280;74095;48.270;14.200;2024-03-06T14:05:23;98107.84;;;12.06
81177;BMP280;74095;48.270;14.200;2024-03-06T14:07:53;98100.22;;;12.13